Time;durP1;ratioP1;P1;durP2;ratioP2;P2;SDS_P1;SDS_P2;PMS_P1;PMS_P2;Temp;Humidity;BMP_temperature;BMP_pressure;BME280_temperature;BME280_humidity;BME280_pressure;Samples;Min_cycle;Max_cycle;Signal;HPM_P1;HPM_P2
2023/03/12 00:00:35;;;;;;;9.40;4.50;;;3.90;72.90;;;;;;4998437;28;20545;-80
2023/03/12 00:03:01;;;;;;;10.70;4.83;;;3.90;72.90;;;;;;4998623;28;20114;-79
2023/03/12 00:05:27;;;;;;;8.90;4.50;;;3.90;72.80;;;;;;4998600;28;20030;-80
2023/03/12 00:07:53;;;;;;;9.67;4.33;;;3.90;72.80;;;;;;5016133;28;20041;-80
2023/03/12 00:10:19;;;;;;;10.93;4.50;;;4.00;72.70;;;;;;4998340;28;20523;-79
2023/03/12 00:12:45;;;;;;;10.33;4.03;;;4.00;72.70;;;;;;5016220;28;20097;-80
2023/03/12 00:15:11;;;;;;;10.27;4.53;;;4.00;72.70;;;;;;5014880;28;20109;-80
2023/03/12 00:17:36;;;;;;;14.43;4.60;;;4.00;72.70;;;;;;5016037;28;20497;-80
2023/03/12 00:20:05;;;;;;;7.03;3.53;;;4.00;72.70;;;;;;4998088;28;20096;-80
2023/03/12 00:22:31;;;;;;;8.63;3.63;;;4.00;72.70;;;;;;4998692;28;20029;-80
2023/03/12 00:24:56;;;;;;;8.53;3.73;;;4.00;72.60;;;;;;5015843;28;20038;-79
2023/03/12 00:27:23;;;;;;;9.50;3.73;;;4.00;72.50;;;;;;5014669;28;20068;-80
2023/03/12 00:29:49;;;;;;;7.73;3.63;;;4.10;72.50;;;;;;5015805;28;20374;-79
2023/03/12 00:32:15;;;;;;;11.20;3.77;;;4.10;72.50;;;;;;5013039;28;20030;-80
2023/03/12 00:34:40;;;;;;;12.53;3.37;;;4.10;72.40;;;;;;5014577;28;20398;-80
2023/03/12 00:37:06;;;;;;;8.00;3.43;;;4.10;72.30;;;;;;4997732;28;20155;-80
2023/03/12 00:39:33;;;;;;;7.93;3.40;;;4.10;72.20;;;;;;4997527;28;20066;-80
2023/03/12 00:41:59;;;;;;;7.20;3.80;;;4.10;72.10;;;;;;4997934;28;20030;-79
2023/03/12 00:44:24;;;;;;;8.53;3.93;;;4.10;72.10;;;;;;4998091;28;20080;-80
2023/03/12 00:46:50;;;;;;;8.50;3.93;;;4.10;72.10;;;;;;4997528;28;20018;-80
2023/03/12 00:49:16;;;;;;;10.33;3.63;;;4.10;72.10;;;;;;4997641;28;20529;-80
2023/03/12 00:51:41;;;;;;;9.47;3.93;;;4.10;72.10;;;;;;4981404;28;20026;-80
2023/03/12 00:54:07;;;;;;;7.17;3.20;;;4.10;72.20;;;;;;5013967;28;20045;-80
2023/03/12 00:56:33;;;;;;;9.53;3.87;;;4.10;72.10;;;;;;4997783;28;20521;-80
2023/03/12 00:58:58;;;;;;;11.27;3.07;;;4.10;72.10;;;;;;5015614;28;20462;-80
2023/03/12 01:01:26;;;;;;;8.23;3.40;;;4.20;72.20;;;;;;4997142;28;20421;-80
2023/03/12 01:03:52;;;;;;;10.83;3.57;;;4.20;72.20;;;;;;4997160;28;20022;-80
2023/03/12 01:06:18;;;;;;;11.10;3.83;;;4.30;72.20;;;;;;5014999;28;20068;-80
2023/03/12 01:08:44;;;;;;;9.10;3.50;;;4.30;72.30;;;;;;5013512;28;20036;-80
2023/03/12 01:11:15;;;;;;;7.03;2.80;;;4.20;72.10;;;;;;5014746;28;20026;-80
2023/03/12 01:13:40;;;;;;;7.43;3.07;;;4.20;72.20;;;;;;4997437;28;20035;-80
2023/03/12 01:16:06;;;;;;;8.73;2.60;;;4.20;72.20;;;;;;4997568;28;20590;-80
2023/03/12 01:18:32;;;;;;;9.43;2.90;;;4.30;72.20;;;;;;4997320;28;20037;-79
2023/03/12 01:20:58;;;;;;;6.33;2.50;;;4.20;72.10;;;;;;4997048;28;20481;-79
2023/03/12 01:23:24;;;;;;;6.67;2.90;;;4.30;72.20;;;;;;4996894;28;20037;-80
2023/03/12 01:25:50;;;;;;;7.37;2.70;;;4.30;72.20;;;;;;5014857;28;20429;-80
2023/03/12 01:28:17;;;;;;;8.33;3.23;;;4.50;72.40;;;;;;4997414;28;20030;-80
2023/03/12 01:30:43;;;;;;;11.03;2.80;;;4.30;72.30;;;;;;4996712;28;20164;-79
2023/03/12 01:33:09;;;;;;;4.60;1.97;;;4.40;72.40;;;;;;5014605;28;20032;-80
2023/03/12 01:35:38;;;;;;;5.93;2.30;;;4.40;72.40;;;;;;5014420;28;20426;-80
2023/03/12 01:38:05;;;;;;;7.63;2.30;;;4.40;72.40;;;;;;5013310;28;20041;-80
2023/03/12 01:40:34;;;;;;;10.23;2.43;;;4.30;72.40;;;;;;4996728;28;20029;-80
2023/03/12 01:43:34;;;;;;;6.67;1.97;;;4.40;72.60;;;;;;4996741;28;20117;-80
2023/03/12 01:46:11;;;;;;;8.13;2.23;;;4.40;72.50;;;;;;4996111;28;20041;-79
2023/03/12 01:48:43;;;;;;;8.20;2.10;;;4.40;72.40;;;;;;4996707;28;20051;-79
2023/03/12 01:51:12;;;;;;;4.80;1.70;;;4.50;73.00;;;;;;5014710;28;20025;-79
2023/03/12 01:53:41;;;;;;;5.83;1.80;;;4.40;72.20;;;;;;5014144;28;20084;-79
2023/03/12 01:56:08;;;;;;;6.13;1.70;;;4.50;72.10;;;;;;5013074;28;20429;-79
2023/03/12 01:58:36;;;;;;;7.53;2.30;;;4.40;71.90;;;;;;5012662;28;20026;-80
2023/03/12 02:01:02;;;;;;;6.57;1.80;;;4.40;71.90;;;;;;5013740;28;20042;-79
2023/03/12 02:03:30;;;;;;;8.47;1.70;;;4.40;72.00;;;;;;5014186;28;20521;-79
2023/03/12 02:06:05;;;;;;;6.57;2.10;;;4.40;72.00;;;;;;4996540;28;20061;-79
2023/03/12 02:08:34;;;;;;;5.97;1.80;;;4.40;72.00;;;;;;4996253;28;20021;-80
2023/03/12 02:11:00;;;;;;;5.87;2.00;;;4.40;72.10;;;;;;4996343;28;20092;-79
2023/03/12 02:13:26;;;;;;;5.03;1.67;;;4.40;72.10;;;;;;5012910;28;20030;-80
2023/03/12 02:15:52;;;;;;;5.67;1.87;;;4.40;72.10;;;;;;5014080;28;20026;-79
2023/03/12 02:18:20;;;;;;;4.97;1.53;;;4.40;72.10;;;;;;4995769;28;20053;-79
2023/03/12 02:21:00;;;;;;;6.63;1.90;;;4.40;72.10;;;;;;4995469;28;20050;-79
2023/03/12 02:23:42;;;;;;;5.40;1.80;;;4.40;72.10;;;;;;5012168;28;20103;-80
2023/03/12 02:26:10;;;;;;;7.47;2.00;;;4.40;72.10;;;;;;5013867;28;20105;-80
2023/03/12 02:28:42;;;;;;;5.97;2.13;;;4.40;72.10;;;;;;5012711;28;20030;-80
2023/03/12 02:31:11;;;;;;;5.63;1.93;;;4.40;72.00;;;;;;5012051;28;20026;-79
2023/03/12 02:33:37;;;;;;;6.70;2.20;;;4.40;72.10;;;;;;4995874;28;20022;-80
2023/03/12 02:36:03;;;;;;;5.23;1.70;;;4.50;72.20;;;;;;4995874;28;20112;-79
2023/03/12 02:38:38;;;;;;;10.73;2.13;;;4.40;72.20;;;;;;4996320;28;20536;-80
2023/03/12 02:41:24;;;;;;;5.10;2.00;;;4.40;72.20;;;;;;5012158;28;20050;-80
2023/03/12 02:44:05;;;;;;;7.13;2.37;;;4.40;72.20;;;;;;4995705;28;20109;-80
2023/03/12 02:46:39;;;;;;;6.50;2.43;;;4.40;72.10;;;;;;5012213;28;20025;-80
2023/03/12 02:49:05;;;;;;;7.43;2.00;;;4.40;72.10;;;;;;4995709;28;20545;-80
2023/03/12 02:51:31;;;;;;;4.67;2.20;;;4.50;72.10;;;;;;5012519;28;20030;-80
2023/03/12 02:53:56;;;;;;;5.93;2.27;;;4.50;72.10;;;;;;5012651;28;20026;-80
2023/03/12 02:56:26;;;;;;;7.03;2.60;;;4.50;72.10;;;;;;4995650;28;20045;-80
2023/03/12 02:58:53;;;;;;;6.33;2.50;;;4.50;71.90;;;;;;5013550;28;20030;-80
2023/03/12 03:01:19;;;;;;;7.13;1.97;;;4.50;71.90;;;;;;5012769;28;20037;-80
2023/03/12 03:03:45;;;;;;;8.83;2.57;;;4.60;71.90;;;;;;4995512;28;20029;-80
2023/03/12 03:06:12;;;;;;;10.33;2.07;;;4.50;71.70;;;;;;5013324;28;20072;-80
2023/03/12 03:08:38;;;;;;;4.77;1.80;;;4.60;71.70;;;;;;4995132;28;20363;-80
2023/03/12 03:11:04;;;;;;;4.57;1.97;;;4.60;71.60;;;;;;4995335;28;20052;-80
2023/03/12 03:13:30;;;;;;;5.13;2.13;;;4.60;71.50;;;;;;5013379;28;20041;-80
2023/03/12 03:15:57;;;;;;;6.67;2.27;;;4.60;71.50;;;;;;4995245;28;20034;-79
2023/03/12 03:18:23;;;;;;;7.83;1.83;;;4.60;71.50;;;;;;5012531;28;20596;-80
2023/03/12 03:20:57;;;;;;;8.07;2.20;;;4.60;71.50;;;;;;4995345;28;20558;-80
2023/03/12 03:23:23;;;;;;;6.32;2.10;;;4.60;71.40;;;;;;5013205;28;20055;-80
2023/03/12 03:25:48;;;;;;;5.17;1.70;;;4.60;71.30;;;;;;4995719;28;20483;-81
2023/03/12 03:28:14;;;;;;;4.93;1.73;;;4.70;71.30;;;;;;5012019;28;20038;-80
2023/03/12 03:30:40;;;;;;;11.10;3.60;;;4.50;71.30;;;;;;4995009;28;20022;-80
2023/03/12 03:33:05;;;;;;;9.73;2.20;;;4.60;71.20;;;;;;5011908;28;20034;-80
2023/03/12 03:35:33;;;;;;;4.83;1.67;;;4.60;71.10;;;;;;5012144;28;20057;-81
2023/03/12 03:37:59;;;;;;;4.80;1.90;;;4.60;71.00;;;;;;4995225;28;20400;-80
2023/03/12 03:40:24;;;;;;;6.03;1.80;;;4.60;71.10;;;;;;5012766;28;20048;-80
2023/03/12 03:42:50;;;;;;;6.60;1.73;;;4.60;71.10;;;;;;4995036;28;20037;-80
2023/03/12 03:45:16;;;;;;;8.37;1.67;;;4.60;71.10;;;;;;5011804;28;20037;-80
2023/03/12 03:47:42;;;;;;;9.80;2.07;;;4.60;71.10;;;;;;5012770;28;20029;-80
2023/03/12 03:50:08;;;;;;;5.20;1.43;;;4.50;71.20;;;;;;4995272;28;20381;-79
2023/03/12 03:52:34;;;;;;;5.13;1.43;;;4.50;71.40;;;;;;5011554;28;20045;-80
2023/03/12 03:55:00;;;;;;;4.63;1.50;;;4.60;71.40;;;;;;5011707;28;20025;-80
2023/03/12 03:57:26;;;;;;;8.47;2.10;;;4.60;71.40;;;;;;4994882;28;20065;-79
2023/03/12 03:59:52;;;;;;;6.97;1.70;;;4.60;71.40;;;;;;4995196;28;20041;-79
2023/03/12 04:02:18;;;;;;;5.57;1.30;;;4.60;71.40;;;;;;4994895;28;20386;-80
2023/03/12 04:04:44;;;;;;;7.13;2.40;;;4.60;71.40;;;;;;5012843;28;20030;-80
2023/03/12 04:07:10;;;;;;;4.77;1.27;;;4.60;71.60;;;;;;5014441;28;20041;-80
2023/03/12 04:09:36;;;;;;;5.27;1.53;;;4.60;71.70;;;;;;5016030;28;20422;-81
2023/03/12 04:12:01;;;;;;;7.00;1.57;;;4.60;71.60;;;;;;5016218;28;20470;-81
2023/03/12 04:14:27;;;;;;;9.40;2.43;;;4.60;71.70;;;;;;4998485;28;20026;-80
2023/03/12 04:16:53;;;;;;;6.67;1.80;;;4.60;71.70;;;;;;5016152;28;20026;-80
2023/03/12 04:19:18;;;;;;;5.50;1.50;;;4.60;71.90;;;;;;4982251;28;20429;-81
2023/03/12 04:21:44;;;;;;;6.53;1.80;;;4.60;72.00;;;;;;4998254;28;20045;-81
2023/03/12 04:24:14;;;;;;;6.37;1.63;;;4.60;72.20;;;;;;4982035;28;20030;-80
2023/03/12 04:26:40;;;;;;;7.73;2.03;;;4.60;72.30;;;;;;4998039;28;20022;-80
2023/03/12 04:29:06;;;;;;;7.10;2.07;;;4.60;72.60;;;;;;5015720;28;20485;-80
2023/03/12 04:31:32;;;;;;;4.97;1.70;;;4.60;72.60;;;;;;5014407;28;20105;-80
2023/03/12 04:33:57;;;;;;;8.40;1.73;;;4.60;72.70;;;;;;5015625;28;20022;-81
2023/03/12 04:36:23;;;;;;;6.93;1.83;;;4.60;73.00;;;;;;4998478;28;20564;-80
2023/03/12 04:38:49;;;;;;;5.67;2.43;;;4.60;73.10;;;;;;5014537;28;20037;-81
2023/03/12 04:41:15;;;;;;;5.90;1.87;;;4.60;73.30;;;;;;4998145;28;20044;-81
2023/03/12 04:43:41;;;;;;;4.17;1.03;;;4.70;73.50;;;;;;5015691;28;20112;-81
2023/03/12 04:46:08;;;;;;;8.10;2.10;;;4.60;73.60;;;;;;5014648;28;20114;-81
2023/03/12 04:48:34;;;;;;;5.00;1.60;;;4.60;73.80;;;;;;4998047;28;20037;-81
2023/03/12 04:51:01;;;;;;;7.27;1.53;;;4.60;74.10;;;;;;5015458;28;20033;-81
2023/03/12 04:53:26;;;;;;;5.03;1.43;;;4.60;74.20;;;;;;5014220;28;20041;-81
2023/03/12 04:55:52;;;;;;;8.27;1.70;;;4.60;74.30;;;;;;5013946;28;20049;-81
2023/03/12 04:58:19;;;;;;;7.30;1.67;;;4.60;74.80;;;;;;5013856;28;20033;-82
2023/03/12 05:00:46;;;;;;;6.07;2.10;;;4.60;74.90;;;;;;4997155;28;20038;-81
2023/03/12 05:03:11;;;;;;;6.93;2.03;;;4.60;75.40;;;;;;5014007;28;20018;-81
2023/03/12 05:05:37;;;;;;;7.03;2.30;;;4.60;75.80;;;;;;5014993;28;20036;-81
2023/03/12 05:08:04;;;;;;;6.00;1.97;;;4.70;76.10;;;;;;4997750;28;20026;-81
2023/03/12 05:10:29;;;;;;;5.57;2.47;;;4.60;76.10;;;;;;5013910;28;20033;-81
2023/03/12 05:12:55;;;;;;;7.80;2.30;;;4.50;76.30;;;;;;5015029;28;20034;-81
2023/03/12 05:15:21;;;;;;;8.87;2.63;;;4.60;76.50;;;;;;5013642;28;20026;-81
2023/03/12 05:17:47;;;;;;;8.70;2.30;;;4.50;76.90;;;;;;5013253;28;20030;-81
2023/03/12 05:20:13;;;;;;;5.50;1.93;;;4.60;76.80;;;;;;5014833;28;20415;-81
2023/03/12 05:22:39;;;;;;;8.60;2.13;;;4.60;76.70;;;;;;5014693;28;20084;-81
2023/03/12 05:25:05;;;;;;;6.57;2.03;;;4.60;77.00;;;;;;5014790;28;20032;-81
2023/03/12 05:27:31;;;;;;;8.23;2.63;;;4.60;77.10;;;;;;5013642;28;20532;-81
2023/03/12 05:29:56;;;;;;;7.07;1.90;;;4.60;77.20;;;;;;5013531;28;20026;-82
2023/03/12 05:32:22;;;;;;;6.27;2.03;;;4.60;77.10;;;;;;4996465;28;20137;-81
2023/03/12 05:34:48;;;;;;;7.97;2.23;;;4.60;77.50;;;;;;5013184;28;20057;-80
2023/03/12 05:37:13;;;;;;;6.53;2.10;;;4.70;77.50;;;;;;4996770;28;20484;-80
2023/03/12 05:39:45;;;;;;;6.83;2.20;;;4.60;77.30;;;;;;4996558;28;20103;-81
2023/03/12 05:42:12;;;;;;;8.47;2.70;;;4.60;77.50;;;;;;4996718;28;20108;-80
2023/03/12 05:44:38;;;;;;;6.40;1.77;;;4.60;77.60;;;;;;5013611;28;20084;-79
2023/03/12 05:47:04;;;;;;;8.43;2.60;;;4.60;77.60;;;;;;4996586;28;20021;-80
2023/03/12 05:49:30;;;;;;;5.93;2.20;;;4.60;77.60;;;;;;4988211;28;20038;-80
2023/03/12 05:51:56;;;;;;;5.87;2.70;;;4.60;77.60;;;;;;4961119;28;20125;-80
2023/03/12 05:54:23;;;;;;;10.00;2.73;;;4.60;77.70;;;;;;4979564;28;20030;-79
2023/03/12 05:56:48;;;;;;;6.13;2.13;;;4.60;77.60;;;;;;4987853;28;20041;-80
2023/03/12 05:59:14;;;;;;;5.77;2.60;;;4.60;77.70;;;;;;4994513;28;20394;-80
2023/03/12 06:01:40;;;;;;;7.37;2.50;;;4.60;77.80;;;;;;4976498;28;20045;-80
2023/03/12 06:04:06;;;;;;;7.00;2.50;;;4.50;77.90;;;;;;4993201;28;20022;-81
2023/03/12 06:06:33;;;;;;;6.30;2.00;;;4.50;77.90;;;;;;4993785;28;20022;-80
2023/03/12 06:08:59;;;;;;;7.33;2.03;;;4.60;77.90;;;;;;4976666;28;20026;-80
2023/03/12 06:11:25;;;;;;;7.83;2.50;;;4.50;78.00;;;;;;4976597;28;20030;-81
2023/03/12 06:13:50;;;;;;;4.93;2.13;;;4.50;78.20;;;;;;4992556;28;20459;-81
2023/03/12 06:16:19;;;;;;;7.17;2.40;;;4.50;78.10;;;;;;4992914;28;20494;-80
2023/03/12 06:18:45;;;;;;;5.30;2.43;;;4.50;77.90;;;;;;4976919;28;20049;-81
2023/03/12 06:21:16;;;;;;;7.77;2.50;;;4.60;78.10;;;;;;4976359;28;20042;-81
2023/03/12 06:23:42;;;;;;;6.87;2.60;;;4.60;78.30;;;;;;4976822;28;20023;-81
2023/03/12 06:26:09;;;;;;;5.10;2.13;;;4.60;78.60;;;;;;4976719;28;20042;-80
2023/03/12 06:28:35;;;;;;;8.20;2.90;;;4.60;78.60;;;;;;4993770;28;20026;-80
2023/03/12 06:31:01;;;;;;;6.03;2.30;;;4.50;78.80;;;;;;4976160;28;20556;-81
2023/03/12 06:33:27;;;;;;;6.77;2.10;;;4.60;79.10;;;;;;4976568;28;20026;-80
2023/03/12 06:35:58;;;;;;;7.90;2.37;;;4.50;79.40;;;;;;4985084;28;20059;-80
2023/03/12 06:38:24;;;;;;;5.47;1.80;;;4.60;79.50;;;;;;4956976;28;20034;-81
2023/03/12 06:41:01;;;;;;;7.67;2.30;;;4.60;79.60;;;;;;4974634;28;20038;-81
2023/03/12 06:43:28;;;;;;;6.13;2.00;;;4.50;79.60;;;;;;4974069;28;20022;-81
2023/03/12 06:45:56;;;;;;;8.83;2.30;;;4.50;80.30;;;;;;4974235;28;20026;-81
2023/03/12 06:48:22;;;;;;;8.27;2.10;;;4.50;80.60;;;;;;4957570;28;20118;-81
2023/03/12 06:50:48;;;;;;;6.23;1.87;;;4.50;80.90;;;;;;4973936;28;20030;-80
2023/03/12 06:53:14;;;;;;;9.80;2.60;;;4.60;81.50;;;;;;4973263;28;20027;-81
2023/03/12 06:55:40;;;;;;;5.30;2.20;;;4.50;81.70;;;;;;4974582;28;20078;-80
2023/03/12 06:58:05;;;;;;;9.03;2.83;;;4.50;81.90;;;;;;4957376;28;20435;-81
2023/03/12 07:00:32;;;;;;;7.97;2.63;;;4.50;82.80;;;;;;4956535;28;20062;-81
2023/03/12 07:02:57;;;;;;;8.27;2.63;;;4.50;83.40;;;;;;4972824;28;20065;-81
2023/03/12 07:05:24;;;;;;;8.53;2.93;;;4.50;83.70;;;;;;4956947;28;20051;-81
2023/03/12 07:07:50;;;;;;;8.70;2.90;;;4.50;84.70;;;;;;4973100;28;20042;-81
2023/03/12 07:10:16;;;;;;;6.03;2.57;;;4.50;85.10;;;;;;4990657;28;20061;-81
2023/03/12 07:12:43;;;;;;;7.43;2.33;;;4.50;85.40;;;;;;4992368;28;20029;-81
2023/03/12 07:15:09;;;;;;;11.73;3.27;;;4.50;86.00;;;;;;4974149;28;20030;-81
2023/03/12 07:17:35;;;;;;;7.20;3.07;;;4.60;86.40;;;;;;4960178;28;20060;-80
2023/03/12 07:20:00;;;;;;;11.40;2.80;;;4.40;86.30;;;;;;4959468;28;20074;-80
2023/03/12 07:22:26;;;;;;;8.23;2.67;;;4.70;86.90;;;;;;4993029;28;20113;-81
2023/03/12 07:24:52;;;;;;;13.53;3.23;;;4.60;87.50;;;;;;4976199;28;20501;-81
2023/03/12 07:27:18;;;;;;;11.70;3.33;;;4.60;88.00;;;;;;4959433;28;20469;-81
2023/03/12 07:29:44;;;;;;;10.33;2.70;;;4.60;88.30;;;;;;4960066;28;20036;-80
2023/03/12 07:32:10;;;;;;;11.43;3.57;;;4.60;88.60;;;;;;4975236;28;20035;-80
2023/03/12 07:34:36;;;;;;;10.73;3.37;;;4.60;89.40;;;;;;4993517;28;20030;-81
2023/03/12 07:37:02;;;;;;;8.30;3.43;;;4.60;90.00;;;;;;4976113;28;20060;-80
2023/03/12 07:39:27;;;;;;;12.23;3.30;;;4.60;90.30;;;;;;5012804;28;20030;-80
2023/03/12 07:41:53;;;;;;;10.43;3.20;;;4.60;90.40;;;;;;4981690;28;20508;-80
2023/03/12 07:44:19;;;;;;;9.80;3.27;;;4.60;90.40;;;;;;4999121;28;20033;-80
2023/03/12 07:46:45;;;;;;;8.17;3.27;;;4.60;90.80;;;;;;5016310;28;20030;-80
2023/03/12 07:49:10;;;;;;;7.77;2.77;;;4.60;90.80;;;;;;4999024;28;20421;-81
2023/03/12 07:51:36;;;;;;;12.67;3.23;;;4.60;91.00;;;;;;4982332;28;20125;-80
2023/03/12 07:54:02;;;;;;;9.47;3.50;;;4.60;91.30;;;;;;4998692;28;20073;-80
2023/03/12 07:56:27;;;;;;;12.57;4.40;;;4.60;91.50;;;;;;4998947;28;20022;-81
2023/03/12 07:58:53;;;;;;;13.67;4.50;;;4.70;92.30;;;;;;4998739;28;20030;-80
2023/03/12 08:01:22;;;;;;;8.73;3.43;;;4.60;92.50;;;;;;4998482;28;20049;-80
2023/03/12 08:03:47;;;;;;;9.50;3.57;;;4.60;93.10;;;;;;4999233;28;20052;-80
2023/03/12 08:06:13;;;;;;;12.43;4.07;;;4.70;93.60;;;;;;4982491;28;20022;-81
2023/03/12 08:08:41;;;;;;;11.50;3.80;;;4.70;93.90;;;;;;4982306;28;20041;-81
2023/03/12 08:11:08;;;;;;;12.93;4.17;;;4.50;94.70;;;;;;4998397;28;20450;-80
2023/03/12 08:13:34;;;;;;;7.83;4.07;;;4.70;94.40;;;;;;4982718;28;20117;-80
2023/03/12 08:16:00;;;;;;;9.57;3.73;;;4.70;95.20;;;;;;5015859;28;20030;-80
2023/03/12 08:18:26;;;;;;;10.27;4.70;;;4.60;95.70;;;;;;4982044;28;20104;-81
2023/03/12 08:20:52;;;;;;;11.27;4.93;;;4.70;96.70;;;;;;4998534;28;20489;-81
2023/03/12 08:23:19;;;;;;;7.97;3.97;;;4.70;97.80;;;;;;5016155;28;20030;-81
2023/03/12 08:25:46;;;;;;;10.90;4.03;;;4.70;97.60;;;;;;4997869;28;20025;-80
2023/03/12 08:28:12;;;;;;;11.93;4.40;;;4.70;98.70;;;;;;4998214;28;20030;-81
2023/03/12 08:30:38;;;;;;;9.20;4.70;;;4.70;98.40;;;;;;4998312;28;20026;-81
2023/03/12 08:33:04;;;;;;;6.47;3.67;;;4.70;98.40;;;;;;5015524;28;20081;-81
2023/03/12 08:35:29;;;;;;;12.77;4.00;;;4.70;99.00;;;;;;4998018;28;20077;-80
2023/03/12 08:37:55;;;;;;;6.70;3.67;;;4.70;98.70;;;;;;4982088;28;20062;-81
2023/03/12 08:40:23;;;;;;;10.70;4.00;;;4.80;98.70;;;;;;4981910;28;20045;-80
2023/03/12 08:42:48;;;;;;;9.50;4.40;;;4.70;99.20;;;;;;4997563;28;20038;-81
2023/03/12 08:45:14;;;;;;;9.10;4.53;;;4.80;99.70;;;;;;4998223;28;20034;-80
2023/03/12 08:47:42;;;;;;;8.80;4.60;;;5.00;99.50;;;;;;4998144;28;20367;-80
2023/03/12 08:50:10;;;;;;;11.00;4.27;;;4.90;99.20;;;;;;4981739;28;20113;-80
2023/03/12 08:52:36;;;;;;;9.27;3.67;;;4.90;99.80;;;;;;4996770;28;20022;-81
2023/03/12 08:55:01;;;;;;;9.50;4.43;;;5.00;99.80;;;;;;4997724;28;20487;-80
2023/03/12 08:57:27;;;;;;;8.70;4.80;;;5.00;99.90;;;;;;4997843;28;20381;-80
2023/03/12 08:59:53;;;;;;;8.90;4.47;;;5.10;99.90;;;;;;4997802;28;20049;-80
2023/03/12 09:02:19;;;;;;;7.67;4.70;;;5.00;99.90;;;;;;4997477;28;20025;-80
2023/03/12 09:04:47;;;;;;;7.53;3.93;;;5.10;99.90;;;;;;4981119;28;20109;-80
2023/03/12 09:07:13;;;;;;;8.57;4.43;;;5.10;99.90;;;;;;4997891;28;20037;-80
2023/03/12 09:09:39;;;;;;;8.40;4.50;;;5.10;99.90;;;;;;4997397;28;20371;-81
2023/03/12 09:12:05;;;;;;;9.87;5.10;;;5.10;99.90;;;;;;4981404;28;20030;-80
2023/03/12 09:14:30;;;;;;;9.80;4.60;;;5.20;99.90;;;;;;4997437;28;20088;-81
2023/03/12 09:16:57;;;;;;;10.90;5.40;;;5.20;99.90;;;;;;4996943;28;20037;-80
2023/03/12 09:19:22;;;;;;;10.47;4.90;;;5.20;99.90;;;;;;4997448;28;20068;-80
2023/03/12 09:21:48;;;;;;;12.40;5.07;;;5.20;99.90;;;;;;4981032;28;20041;-80
2023/03/12 09:24:14;;;;;;;11.27;5.63;;;5.20;99.90;;;;;;4981186;28;20041;-80
2023/03/12 09:26:39;;;;;;;10.73;5.03;;;5.20;99.90;;;;;;4980655;28;20026;-79
2023/03/12 09:29:05;;;;;;;10.33;5.67;;;5.30;99.90;;;;;;4997523;28;20038;-80
2023/03/12 09:31:32;;;;;;;12.77;6.27;;;5.40;99.90;;;;;;4996713;28;20394;-81
2023/03/12 09:33:58;;;;;;;11.13;6.23;;;5.40;99.90;;;;;;5014830;28;20022;-81
2023/03/12 09:36:24;;;;;;;15.30;6.87;;;5.40;99.90;;;;;;4980703;28;20061;-82
2023/03/12 09:38:49;;;;;;;11.57;6.50;;;5.50;99.90;;;;;;4997787;28;20041;-82
2023/03/12 09:41:26;;;;;;;12.30;6.87;;;5.50;99.90;;;;;;4980357;28;20048;-82
2023/03/12 09:44:07;;;;;;;14.00;7.10;;;5.60;99.90;;;;;;4996400;28;20426;-82
2023/03/12 09:46:49;;;;;;;12.67;7.33;;;5.70;99.90;;;;;;5014597;28;20029;-82
2023/03/12 09:49:39;;;;;;;14.87;8.17;;;5.70;99.90;;;;;;5014227;28;20065;-82
2023/03/12 09:52:18;;;;;;;13.77;7.67;;;5.70;99.90;;;;;;4989351;28;20064;-82
2023/03/12 09:54:53;;;;;;;14.37;7.67;;;5.80;99.90;;;;;;5014850;28;20058;-82
2023/03/12 09:57:25;;;;;;;12.63;6.60;;;5.90;99.90;;;;;;5013912;28;20030;-82
2023/03/12 09:59:51;;;;;;;13.10;8.27;;;6.00;99.90;;;;;;4996233;28;20479;-81
2023/03/12 10:02:42;;;;;;;14.30;8.70;;;6.00;99.90;;;;;;4995978;28;20069;-81
2023/03/12 10:05:35;;;;;;;15.97;8.87;;;6.10;99.90;;;;;;4996129;28;20524;-81
2023/03/12 10:08:13;;;;;;;13.93;7.70;;;6.10;99.90;;;;;;5014285;28;20014;-81
2023/03/12 10:10:55;;;;;;;15.90;8.73;;;6.20;99.90;;;;;;4996384;28;20030;-80
2023/03/12 10:13:34;;;;;;;15.27;9.10;;;6.30;99.90;;;;;;5013905;28;20470;-82
2023/03/12 10:16:34;;;;;;;15.57;9.37;;;6.30;99.90;;;;;;4996016;28;20096;-82
2023/03/12 10:19:32;;;;;;;17.73;10.17;;;6.40;99.90;;;;;;5013587;28;20036;-81
2023/03/12 10:22:26;;;;;;;19.37;11.20;;;6.50;99.90;;;;;;4996652;28;20030;-81
2023/03/12 10:25:05;;;;;;;22.13;11.57;;;6.50;99.90;;;;;;4996103;28;20030;-81
2023/03/12 10:27:34;;;;;;;22.27;13.90;;;6.60;99.90;;;;;;4995548;28;20080;-81
2023/03/12 10:30:01;;;;;;;21.10;12.60;;;6.60;99.90;;;;;;4995766;28;20041;-79
2023/03/12 10:32:41;;;;;;;25.67;11.80;;;6.70;99.90;;;;;;4979589;28;20030;-80
2023/03/12 10:35:19;;;;;;;21.90;13.30;;;6.70;99.90;;;;;;4995908;28;20111;-80
2023/03/12 10:38:00;;;;;;;21.17;12.50;;;6.80;99.90;;;;;;4979545;28;20404;-81
2023/03/12 10:40:35;;;;;;;20.37;13.47;;;6.90;99.90;;;;;;5013361;28;20092;-81
2023/03/12 10:43:02;;;;;;;21.83;13.57;;;6.90;99.90;;;;;;5013374;28;20062;-81
2023/03/12 10:45:53;;;;;;;21.93;13.20;;;7.00;99.90;;;;;;4995703;28;20161;-81
2023/03/12 10:48:22;;;;;;;24.77;13.10;;;7.10;99.90;;;;;;4985545;28;20040;-80
2023/03/12 10:51:02;;;;;;;23.20;14.10;;;7.20;99.90;;;;;;4995312;28;20017;-81
2023/03/12 10:53:34;;;;;;;23.27;12.90;;;7.30;99.90;;;;;;4995561;28;20033;-81
2023/03/12 10:56:12;;;;;;;27.97;14.37;;;7.40;99.90;;;;;;5013613;28;20037;-81
2023/03/12 10:58:45;;;;;;;23.00;14.67;;;7.50;99.90;;;;;;5013167;28;20036;-81
2023/03/12 11:01:21;;;;;;;25.80;14.90;;;7.60;99.90;;;;;;5013031;28;20033;-81
2023/03/12 11:03:47;;;;;;;22.33;15.30;;;7.70;99.90;;;;;;5012974;28;20033;-81
2023/03/12 11:06:28;;;;;;;21.83;12.93;;;7.80;99.90;;;;;;4979637;28;20034;-81
2023/03/12 11:09:04;;;;;;;22.83;14.63;;;7.80;99.90;;;;;;5014194;28;20042;-81
2023/03/12 11:11:33;;;;;;;23.17;15.90;;;8.00;99.90;;;;;;4995711;28;20180;-81
2023/03/12 11:14:11;;;;;;;23.53;14.40;;;8.10;99.90;;;;;;5013393;28;20018;-81
2023/03/12 11:16:37;;;;;;;23.47;14.47;;;8.20;99.90;;;;;;5015099;28;20030;-81
2023/03/12 11:19:05;;;;;;;27.90;16.13;;;8.30;99.90;;;;;;4999495;28;20496;-81
2023/03/12 11:21:35;;;;;;;30.00;16.40;;;8.30;99.90;;;;;;5017018;28;20070;-81
2023/03/12 11:24:12;;;;;;;23.30;15.10;;;8.40;99.90;;;;;;4999311;28;20109;-81
2023/03/12 11:27:02;;;;;;;31.80;16.50;;;8.40;99.90;;;;;;5016643;28;20034;-80
2023/03/12 11:29:47;;;;;;;24.37;13.83;;;8.50;99.90;;;;;;4999379;28;20469;-81
2023/03/12 11:32:15;;;;;;;;;;;8.70;99.90;;;;;;5017009;28;20165;-81
2023/03/12 11:34:42;;;;;;;28.17;13.80;;;8.80;99.90;;;;;;5017268;28;20035;-81
2023/03/12 11:37:27;;;;;;;23.10;12.23;;;8.80;99.90;;;;;;4999328;28;20057;-81
2023/03/12 11:40:10;;;;;;;27.53;12.50;;;8.90;99.90;;;;;;4999267;28;20037;-81
2023/03/12 11:43:00;;;;;;;26.67;11.90;;;9.00;99.90;;;;;;5016381;28;20467;-81
2023/03/12 11:45:30;;;;;;;23.50;10.23;;;9.10;99.90;;;;;;4999135;28;20533;-81
2023/03/12 11:48:15;;;;;;;31.70;10.60;;;9.20;99.90;;;;;;4999049;28;20030;-81
2023/03/12 11:50:50;;;;;;;24.00;9.37;;;9.30;99.90;;;;;;4998903;28;20048;-81
2023/03/12 11:53:40;;;;;;;28.63;9.03;;;9.30;99.90;;;;;;4999269;28;20034;-81
2023/03/12 11:56:24;;;;;;;30.13;8.73;;;9.40;99.90;;;;;;5016164;28;20377;-81
2023/03/12 11:59:18;;;;;;;25.40;8.48;;;9.50;99.90;;;;;;5016317;28;20485;-80
2023/03/12 12:01:55;;;;;;;36.50;9.13;;;9.60;99.90;;;;;;4998983;28;20125;-81
2023/03/12 12:04:43;;;;;;;24.80;6.87;;;9.70;99.90;;;;;;4999330;28;20033;-81
2023/03/12 12:07:36;;;;;;;28.77;8.07;;;9.70;99.90;;;;;;4998738;28;20029;-81
2023/03/12 12:10:41;;;;;;;36.33;7.27;;;9.80;99.90;;;;;;4998909;28;20030;-81
2023/03/12 12:13:16;;;;;;;27.07;7.20;;;9.90;99.90;;;;;;5002667;28;20033;-81
2023/03/12 12:16:00;;;;;;;32.17;6.70;;;9.90;99.90;;;;;;4998322;28;20018;-82
2023/03/12 12:18:41;;;;;;;30.75;6.20;;;9.90;99.90;;;;;;5016480;28;20069;-82
2023/03/12 12:21:26;;;;;;;26.20;6.43;;;10.00;99.90;;;;;;4998286;28;20478;-81
2023/03/12 12:24:13;;;;;;;31.02;6.80;;;10.00;99.90;;;;;;4998106;28;20037;-82
2023/03/12 12:26:57;;;;;;;34.40;6.73;;;10.10;99.90;;;;;;5015586;28;20417;-81
2023/03/12 12:29:48;;;;;;;37.63;7.75;;;10.20;99.90;;;;;;5015661;28;20030;-82
2023/03/12 12:32:30;;;;;;;26.23;5.77;;;10.30;99.90;;;;;;5015022;28;20117;-81
2023/03/12 12:35:20;;;;;;;36.37;7.23;;;10.40;99.90;;;;;;4997972;28;20109;-82
2023/03/12 12:37:51;;;;;;;29.33;6.10;;;10.40;99.90;;;;;;5015506;28;20042;-81
2023/03/12 12:40:36;;;;;;;30.17;6.67;;;10.40;99.90;;;;;;4997191;28;20128;-81
2023/03/12 12:43:28;;;;;;;;;;;10.40;99.90;;;;;;4998280;28;20072;-81
2023/03/12 12:45:58;;;;;;;33.17;5.60;;;10.40;99.90;;;;;;4995218;28;19910;-81
2023/03/12 12:48:35;;;;;;;34.37;6.37;;;10.40;99.90;;;;;;5015286;28;20436;-81
2023/03/12 12:51:03;;;;;;;32.73;5.47;;;10.40;99.90;;;;;;5015756;28;20026;-81
2023/03/12 12:53:45;;;;;;;28.80;5.63;;;10.40;99.90;;;;;;5015310;28;20061;-81
2023/03/12 12:56:11;;;;;;;30.20;6.20;;;10.50;99.90;;;;;;5015440;28;20021;-81
2023/03/12 12:59:03;;;;;;;31.50;6.33;;;10.50;99.90;;;;;;4997945;28;20026;-81
2023/03/12 13:01:32;;;;;;;24.17;5.90;;;10.60;99.90;;;;;;4997016;28;20057;-80
2023/03/12 13:04:08;;;;;;;24.83;5.13;;;10.60;99.90;;;;;;5015068;28;20421;-80
2023/03/12 13:07:12;;;;;;;27.30;5.77;;;10.60;99.90;;;;;;4998009;28;20052;-81